Time;durP1;ratioP1;P1;durP2;ratioP2;P2;SDS_P1;SDS_P2;PMS_P1;PMS_P2;Temp;Humidity;BMP_temperature;BMP_pressure;BME280_temperature;BME280_humidity;BME280_pressure;Samples;Min_cycle;Max_cycle;Signal;HPM_P1;HPM_P2
2021/01/21 00:00:26;;;;;;;2.42;1.40;;;14.60;53.30;;;;;;2091993;28;20090;-60
2021/01/21 00:01:47;;;;;;;2.28;1.10;;;14.60;53.30;;;;;;2096368;28;20076;-61
2021/01/21 00:03:08;;;;;;;2.85;1.33;;;14.50;53.20;;;;;;2097569;28;20052;-60
2021/01/21 00:04:29;;;;;;;2.88;1.30;;;14.60;53.30;;;;;;2096215;28;20032;-61
2021/01/21 00:05:50;;;;;;;3.90;1.65;;;14.50;53.20;;;;;;2096854;28;20115;-60
2021/01/21 00:07:10;;;;;;;1.60;1.30;;;14.60;53.30;;;;;;2095853;28;20029;-60
2021/01/21 00:08:31;;;;;;;2.75;1.40;;;14.60;53.20;;;;;;2095725;28;20411;-60
2021/01/21 00:09:52;;;;;;;1.55;1.23;;;14.50;53.20;;;;;;2096384;28;20033;-59
2021/01/21 00:11:13;;;;;;;2.17;1.33;;;14.50;53.20;;;;;;2095750;28;20049;-60
2021/01/21 00:12:34;;;;;;;1.50;1.20;;;14.50;53.10;;;;;;2094212;28;20029;-61
2021/01/21 00:13:55;;;;;;;1.45;1.20;;;14.50;53.20;;;;;;2097105;28;20647;-61
2021/01/21 00:15:16;;;;;;;2.60;1.30;;;14.50;53.30;;;;;;2089726;28;20029;-60
2021/01/21 00:16:37;;;;;;;2.80;1.25;;;14.50;53.30;;;;;;2098585;28;20028;-60
2021/01/21 00:18:00;;;;;;;2.65;1.30;;;14.50;53.20;;;;;;2088903;28;20116;-60
2021/01/21 00:19:20;;;;;;;1.73;0.90;;;14.50;53.20;;;;;;2091150;28;20068;-60
2021/01/21 00:20:41;;;;;;;2.78;1.30;;;14.50;53.20;;;;;;2095715;28;20036;-60
2021/01/21 00:22:02;;;;;;;1.77;1.13;;;14.50;53.20;;;;;;2088342;28;20037;-59
2021/01/21 00:23:23;;;;;;;1.25;1.00;;;14.50;53.20;;;;;;2097208;28;20041;-60
2021/01/21 00:24:44;;;;;;;3.05;1.10;;;14.50;53.20;;;;;;2095989;28;20120;-60
2021/01/21 00:26:05;;;;;;;2.38;1.55;;;14.50;53.10;;;;;;2097210;28;20072;-60
2021/01/21 00:27:26;;;;;;;2.83;1.20;;;14.50;53.10;;;;;;2095560;28;20035;-60
2021/01/21 00:28:47;;;;;;;2.80;1.33;;;14.50;53.10;;;;;;2096644;28;20155;-60
2021/01/21 00:30:11;;;;;;;2.08;1.17;;;14.50;53.10;;;;;;2088745;28;20380;-59
2021/01/21 00:31:32;;;;;;;1.85;1.20;;;14.50;53.10;;;;;;2091263;28;20027;-60
2021/01/21 00:32:53;;;;;;;2.38;1.20;;;14.50;53.10;;;;;;2096977;28;20036;-59
2021/01/21 00:34:14;;;;;;;1.10;1.00;;;14.60;53.10;;;;;;2091315;28;20088;-65
2021/01/21 00:35:35;;;;;;;2.17;1.13;;;14.50;53.00;;;;;;2096645;28;20048;-59
2021/01/21 00:36:56;;;;;;;1.63;1.00;;;14.60;53.10;;;;;;2097299;28;20064;-59
2021/01/21 00:38:17;;;;;;;1.38;1.10;;;14.60;53.00;;;;;;2092714;28;20036;-60
2021/01/21 00:39:38;;;;;;;1.90;1.30;;;14.50;53.00;;;;;;2100409;28;20029;-60
2021/01/21 00:40:59;;;;;;;2.15;1.30;;;14.60;53.00;;;;;;2098340;28;20033;-60
2021/01/21 00:42:20;;;;;;;2.13;1.42;;;14.60;53.00;;;;;;2098917;28;20047;-60
2021/01/21 00:43:40;;;;;;;2.85;1.25;;;14.60;52.90;;;;;;2098228;28;20458;-59
2021/01/21 00:45:02;;;;;;;2.25;1.13;;;14.60;52.90;;;;;;2097694;28;20040;-60
2021/01/21 00:46:23;;;;;;;3.60;1.40;;;14.60;52.80;;;;;;2092241;28;20039;-59
2021/01/21 00:47:44;;;;;;;1.40;1.27;;;14.60;52.80;;;;;;2097698;28;20498;-60
2021/01/21 00:49:05;;;;;;;1.25;1.13;;;14.60;52.80;;;;;;2097883;28;20036;-59
2021/01/21 00:50:26;;;;;;;2.03;1.30;;;14.60;52.80;;;;;;2098134;28;20031;-60
2021/01/21 00:51:47;;;;;;;1.42;1.33;;;14.60;52.80;;;;;;2098304;28;20084;-59
2021/01/21 00:53:08;;;;;;;1.00;0.88;;;14.60;52.70;;;;;;2092472;28;20444;-59
2021/01/21 00:54:28;;;;;;;2.20;1.00;;;14.60;52.70;;;;;;2095590;28;20089;-60
2021/01/21 00:55:49;;;;;;;2.53;1.30;;;14.60;52.70;;;;;;2097545;28;20036;-60
2021/01/21 00:57:10;;;;;;;2.28;1.35;;;14.60;52.60;;;;;;2098000;28;20871;-59
2021/01/21 00:58:31;;;;;;;1.20;1.00;;;14.60;52.60;;;;;;2097707;28;20032;-60
2021/01/21 00:59:52;;;;;;;1.20;1.10;;;14.60;52.60;;;;;;2097336;28;20032;-59
2021/01/21 01:01:13;;;;;;;2.47;1.00;;;14.60;52.50;;;;;;2097983;28;20039;-60
2021/01/21 01:02:34;;;;;;;1.40;0.95;;;14.60;52.40;;;;;;2098282;28;20112;-59
2021/01/21 01:03:55;;;;;;;1.52;1.13;;;14.60;52.50;;;;;;2096410;28;20033;-61
2021/01/21 01:05:15;;;;;;;2.00;1.10;;;14.60;52.50;;;;;;2090620;28;20107;-59
2021/01/21 01:06:36;;;;;;;1.55;1.05;;;14.60;52.50;;;;;;2096503;28;20032;-59
2021/01/21 01:07:57;;;;;;;1.23;1.00;;;14.60;52.40;;;;;;2102574;28;20040;-60
2021/01/21 01:09:18;;;;;;;1.60;1.20;;;14.60;52.40;;;;;;2091905;28;20176;-60
2021/01/21 01:10:39;;;;;;;1.52;1.05;;;14.60;52.80;;;;;;2097484;28;20053;-60
2021/01/21 01:12:00;;;;;;;1.92;1.10;;;14.60;52.30;;;;;;2097377;28;20025;-59
2021/01/21 01:13:21;;;;;;;2.22;1.30;;;14.60;52.30;;;;;;2099151;28;20032;-60
2021/01/21 01:14:42;;;;;;;1.83;1.27;;;14.60;52.20;;;;;;2096589;28;20391;-58
2021/01/21 01:16:03;;;;;;;1.50;1.10;;;14.60;52.20;;;;;;2097474;28;20040;-59
2021/01/21 01:17:24;;;;;;;1.52;1.10;;;14.60;52.10;;;;;;2098100;28;20013;-59
2021/01/21 01:18:45;;;;;;;1.55;1.00;;;14.60;52.10;;;;;;2098016;28;20040;-59
2021/01/21 01:20:06;;;;;;;1.83;1.35;;;14.60;52.10;;;;;;2098789;28;20043;-59
2021/01/21 01:21:27;;;;;;;1.20;1.10;;;14.70;52.10;;;;;;2098688;28;20028;-58
2021/01/21 01:22:53;;;;;;;1.30;1.20;;;14.60;52.10;;;;;;2100255;28;20067;-59
2021/01/21 01:24:14;;;;;;;1.40;1.15;;;14.60;52.00;;;;;;2093650;28;20059;-59
2021/01/21 01:25:35;;;;;;;1.63;1.00;;;14.60;52.10;;;;;;2098250;28;20387;-59
2021/01/21 01:26:56;;;;;;;1.85;1.05;;;14.60;52.50;;;;;;2102648;28;20093;-59
2021/01/21 01:28:17;;;;;;;2.35;1.20;;;14.70;52.00;;;;;;2091956;28;20040;-59
2021/01/21 01:29:38;;;;;;;2.28;1.08;;;14.60;51.90;;;;;;2094363;28;20127;-59
2021/01/21 01:30:59;;;;;;;1.20;1.10;;;14.60;51.90;;;;;;2097553;28;20032;-58
2021/01/21 01:32:20;;;;;;;2.88;1.30;;;14.60;51.90;;;;;;2098145;28;20028;-61
2021/01/21 01:33:41;;;;;;;1.38;1.27;;;14.60;51.90;;;;;;2095518;28;20542;-59
2021/01/21 01:35:02;;;;;;;2.60;1.20;;;14.60;51.80;;;;;;2097324;28;20039;-61
2021/01/21 01:36:23;;;;;;;1.48;1.17;;;14.60;51.80;;;;;;2089904;28;20021;-60
2021/01/21 01:37:44;;;;;;;1.60;1.02;;;14.60;51.90;;;;;;2094364;28;20025;-59
2021/01/21 01:39:05;;;;;;;1.63;1.30;;;14.60;51.90;;;;;;2089677;28;20048;-60
2021/01/21 01:40:26;;;;;;;1.55;1.00;;;14.60;51.80;;;;;;2096407;28;20387;-60
2021/01/21 01:41:48;;;;;;;1.88;1.23;;;14.60;51.70;;;;;;2097759;28;20047;-60
2021/01/21 01:43:09;;;;;;;2.90;1.23;;;14.60;51.80;;;;;;2096783;28;20134;-59
2021/01/21 01:44:29;;;;;;;1.77;1.15;;;14.60;51.70;;;;;;2096675;28;20166;-61
2021/01/21 01:45:50;;;;;;;1.30;1.20;;;14.60;51.80;;;;;;2097154;28;20087;-60
2021/01/21 01:47:11;;;;;;;2.45;1.25;;;14.60;51.80;;;;;;2098185;28;20021;-60
2021/01/21 01:48:32;;;;;;;2.58;1.23;;;14.60;51.80;;;;;;2093072;28;20062;-60
2021/01/21 01:49:57;;;;;;;1.27;1.17;;;14.60;51.70;;;;;;2096603;28;20123;-60
2021/01/21 01:51:18;;;;;;;2.67;1.17;;;14.60;51.70;;;;;;2091666;28;20036;-60
2021/01/21 01:52:41;;;;;;;1.58;1.10;;;14.60;51.70;;;;;;2097923;28;20020;-60
2021/01/21 01:54:03;;;;;;;1.70;1.10;;;14.70;51.70;;;;;;2096645;28;20356;-60
2021/01/21 01:55:25;;;;;;;3.30;1.27;;;14.70;51.80;;;;;;2097876;28;20031;-60
2021/01/21 01:56:47;;;;;;;1.20;1.00;;;14.70;51.70;;;;;;2097864;28;20707;-60
2021/01/21 01:58:09;;;;;;;2.72;1.30;;;14.70;51.70;;;;;;2097727;28;20037;-60
2021/01/21 01:59:30;;;;;;;3.15;1.15;;;14.70;51.80;;;;;;2096590;28;20367;-60
2021/01/21 02:00:54;;;;;;;1.95;0.98;;;14.70;51.90;;;;;;2095558;28;20421;-60
2021/01/21 02:02:15;;;;;;;2.88;1.10;;;14.70;51.80;;;;;;2097655;28;20507;-61
2021/01/21 02:03:36;;;;;;;1.55;1.00;;;14.80;51.70;;;;;;2097328;28;20060;-60
2021/01/21 02:04:59;;;;;;;3.95;1.20;;;14.80;51.80;;;;;;2097174;28;20047;-60
2021/01/21 02:06:20;;;;;;;2.22;1.30;;;14.80;51.70;;;;;;2097842;28;20111;-60
2021/01/21 02:07:42;;;;;;;3.05;1.20;;;14.80;51.70;;;;;;2093351;28;20120;-61
2021/01/21 02:09:03;;;;;;;1.50;1.10;;;14.80;51.60;;;;;;2088727;28;20544;-60
2021/01/21 02:10:24;;;;;;;2.78;1.00;;;14.80;51.70;;;;;;2098809;28;20032;-60
2021/01/21 02:12:23;;;;;;;1.25;1.10;;;14.80;51.60;;;;;;2100129;28;20036;-60
2021/01/21 02:13:59;;;;;;;1.83;1.23;;;14.80;51.40;;;;;;2097591;28;20570;-61
2021/01/21 02:16:02;;;;;;;1.33;1.00;;;14.80;51.50;;;;;;2091697;28;20025;-61
2021/01/21 02:17:44;;;;;;;1.60;1.15;;;14.80;51.50;;;;;;2091538;28;20028;-58
2021/01/21 02:19:38;;;;;;;0.90;0.90;;;14.80;51.50;;;;;;2097762;28;20048;-60
2021/01/21 02:21:29;;;;;;;2.25;1.02;;;14.90;51.50;;;;;;2097114;28;20028;-61
2021/01/21 02:23:28;;;;;;;1.23;0.90;;;14.90;51.60;;;;;;2097541;28;20099;-58
2021/01/21 02:25:08;;;;;;;0.98;0.88;;;14.90;51.70;;;;;;2101990;28;20105;-61
2021/01/21 02:26:50;;;;;;;1.30;1.10;;;14.90;51.70;;;;;;2093191;28;20106;-60
2021/01/21 02:28:11;;;;;;;1.90;1.00;;;14.90;51.70;;;;;;2098231;28;20052;-60
2021/01/21 02:29:37;;;;;;;1.02;0.80;;;14.90;51.80;;;;;;2099520;28;20024;-60
2021/01/21 02:31:03;;;;;;;1.27;0.90;;;14.90;51.70;;;;;;2096473;28;20032;-60
2021/01/21 02:32:45;;;;;;;1.05;0.90;;;14.90;51.70;;;;;;2096697;28;20082;-60
2021/01/21 02:34:09;;;;;;;2.97;1.33;;;14.90;51.70;;;;;;2097018;28;20031;-60
2021/01/21 02:35:31;;;;;;;3.05;1.23;;;14.90;51.70;;;;;;2097583;28;20028;-60
2021/01/21 02:36:55;;;;;;;3.85;1.40;;;14.90;51.70;;;;;;2095713;28;20110;-60
2021/01/21 02:38:18;;;;;;;1.30;1.00;;;14.90;51.80;;;;;;2096651;28;20063;-60
2021/01/21 02:39:43;;;;;;;1.30;1.20;;;14.90;51.80;;;;;;2094448;28;20056;-60
2021/01/21 02:41:05;;;;;;;1.50;1.05;;;14.90;51.90;;;;;;2096745;28;20507;-60
2021/01/21 02:42:27;;;;;;;2.75;1.10;;;15.00;51.90;;;;;;2096900;28;20056;-61
2021/01/21 02:43:54;;;;;;;1.65;1.10;;;15.00;52.00;;;;;;2096402;28;20037;-60
2021/01/21 02:45:16;;;;;;;1.73;1.00;;;15.00;51.90;;;;;;2091176;28;20029;-60
2021/01/21 02:46:37;;;;;;;1.38;0.90;;;15.00;51.90;;;;;;2096840;28;20033;-61
2021/01/21 02:48:00;;;;;;;2.58;1.20;;;15.00;51.90;;;;;;2096289;28;20048;-59
2021/01/21 02:49:21;;;;;;;1.70;1.10;;;15.00;51.90;;;;;;2098222;28;20174;-59
2021/01/21 02:50:42;;;;;;;2.95;1.08;;;15.00;51.90;;;;;;2095257;28;20027;-59
2021/01/21 02:52:26;;;;;;;1.95;1.20;;;15.10;51.90;;;;;;2089403;28;20120;-59
2021/01/21 02:53:50;;;;;;;0.80;0.80;;;15.10;51.80;;;;;;2095997;28;20027;-59
2021/01/21 02:55:19;;;;;;;1.60;0.73;;;15.10;51.90;;;;;;2090756;28;20083;-60
2021/01/21 02:56:42;;;;;;;1.00;1.00;;;15.10;51.90;;;;;;2097080;28;20028;-59
2021/01/21 02:58:11;;;;;;;1.27;1.10;;;15.10;51.90;;;;;;2097133;28;20068;-60
2021/01/21 02:59:39;;;;;;;1.80;1.10;;;15.10;51.90;;;;;;2097047;28;20067;-59
2021/01/21 03:01:02;;;;;;;1.48;1.10;;;15.20;51.90;;;;;;2088952;28;20300;-60
2021/01/21 03:02:26;;;;;;;0.93;0.80;;;15.20;51.90;;;;;;2091463;28;20056;-60
2021/01/21 03:03:48;;;;;;;3.92;1.30;;;15.20;51.80;;;;;;2096960;28;20028;-60
2021/01/21 03:05:12;;;;;;;2.58;1.23;;;15.20;51.70;;;;;;2090213;28;20372;-60
2021/01/21 03:06:34;;;;;;;2.42;1.13;;;15.20;51.60;;;;;;2092933;28;20055;-59
2021/01/21 03:07:55;;;;;;;1.73;1.10;;;15.20;51.60;;;;;;2103715;28;20047;-59
2021/01/21 03:09:16;;;;;;;1.58;0.90;;;15.20;51.60;;;;;;2096898;28;20471;-60
2021/01/21 03:10:38;;;;;;;1.90;1.17;;;15.20;51.60;;;;;;2097527;28;20088;-59
2021/01/21 03:12:25;;;;;;;1.20;1.00;;;15.20;51.60;;;;;;2102439;28;20035;-59
2021/01/21 03:13:46;;;;;;;1.08;0.98;;;15.20;51.40;;;;;;2096155;28;20541;-59
2021/01/21 03:15:08;;;;;;;1.35;1.13;;;15.30;51.70;;;;;;2095757;28;20037;-60
2021/01/21 03:16:29;;;;;;;1.77;1.08;;;15.30;51.50;;;;;;2096398;28;20570;-59
2021/01/21 03:17:50;;;;;;;1.33;0.88;;;15.20;51.50;;;;;;2096996;28;20029;-59
2021/01/21 03:19:11;;;;;;;1.55;1.30;;;15.30;51.60;;;;;;2097214;28;20056;-60
2021/01/21 03:20:32;;;;;;;2.75;1.10;;;15.20;51.60;;;;;;2097151;28;20032;-60
2021/01/21 03:21:52;;;;;;;1.00;0.93;;;15.20;51.50;;;;;;2095747;28;20348;-60
2021/01/21 03:23:13;;;;;;;1.70;1.00;;;15.30;51.60;;;;;;2090509;28;20020;-59
2021/01/21 03:24:34;;;;;;;2.33;1.10;;;15.20;51.50;;;;;;2096324;28;20017;-60
2021/01/21 03:25:55;;;;;;;1.02;0.93;;;15.20;51.60;;;;;;2097211;28;20116;-60
2021/01/21 03:27:16;;;;;;;1.40;1.10;;;15.20;51.50;;;;;;2097006;28;20025;-60
2021/01/21 03:28:38;;;;;;;1.50;1.10;;;15.30;51.60;;;;;;2096209;28;20121;-59
2021/01/21 03:29:59;;;;;;;0.70;0.70;;;15.20;51.60;;;;;;2088285;28;20049;-59
2021/01/21 03:31:19;;;;;;;1.10;1.00;;;15.30;51.70;;;;;;2092955;28;20044;-59
2021/01/21 03:32:40;;;;;;;1.27;0.85;;;15.30;51.60;;;;;;2097483;28;20095;-60
2021/01/21 03:34:01;;;;;;;1.00;0.90;;;15.30;51.70;;;;;;2096096;28;20059;-60
2021/01/21 03:35:22;;;;;;;2.22;1.10;;;15.20;51.70;;;;;;2094100;28;20032;-60
2021/01/21 03:36:43;;;;;;;1.30;1.00;;;15.30;51.80;;;;;;2095450;28;20484;-59
2021/01/21 03:38:04;;;;;;;0.70;0.70;;;15.30;51.90;;;;;;2096050;28;20451;-60
2021/01/21 03:39:25;;;;;;;1.08;0.93;;;15.30;52.10;;;;;;2095087;28;20036;-59
2021/01/21 03:40:46;;;;;;;1.50;0.90;;;15.30;52.20;;;;;;2094547;28;20021;-59
2021/01/21 03:42:07;;;;;;;3.75;0.98;;;15.30;52.10;;;;;;2089598;28;20028;-59
2021/01/21 03:43:28;;;;;;;1.17;1.05;;;15.20;52.10;;;;;;2096882;28;20025;-59
2021/01/21 03:44:49;;;;;;;0.80;0.70;;;15.20;52.00;;;;;;2095750;28;20063;-61
2021/01/21 03:46:09;;;;;;;2.35;1.10;;;15.20;52.10;;;;;;2097172;28;20369;-61
2021/01/21 03:47:30;;;;;;;0.93;0.70;;;15.20;52.00;;;;;;2096292;28;20070;-61
2021/01/21 03:48:51;;;;;;;1.48;0.90;;;15.20;52.10;;;;;;2096176;28;20056;-60
2021/01/21 03:50:12;;;;;;;0.85;0.85;;;15.20;52.10;;;;;;2097128;28;20071;-60
2021/01/21 03:51:33;;;;;;;1.10;0.90;;;15.20;52.10;;;;;;2099649;28;20032;-60
2021/01/21 03:52:54;;;;;;;1.30;1.10;;;15.20;52.10;;;;;;2097646;28;20035;-73
2021/01/21 03:54:15;;;;;;;1.23;0.85;;;15.20;52.10;;;;;;2092293;28;20020;-74
2021/01/21 03:55:36;;;;;;;2.13;0.90;;;15.20;52.10;;;;;;2097121;28;20111;-73
2021/01/21 03:56:57;;;;;;;0.85;0.80;;;15.20;52.10;;;;;;2096652;28;20028;-68
2021/01/21 03:58:18;;;;;;;1.63;0.73;;;15.20;52.70;;;;;;2096698;28;20111;-73
2021/01/21 03:59:39;;;;;;;1.10;1.00;;;15.20;52.20;;;;;;2087241;28;20063;-74
2021/01/21 04:01:00;;;;;;;0.77;0.77;;;15.20;52.10;;;;;;2093406;28;20048;-71
2021/01/21 04:02:21;;;;;;;0.77;0.77;;;15.20;52.20;;;;;;2096780;28;20147;-70
2021/01/21 04:03:42;;;;;;;0.93;0.90;;;15.20;52.90;;;;;;2092361;28;20034;-71
2021/01/21 04:05:04;;;;;;;0.75;0.75;;;15.20;52.40;;;;;;2092563;28;20043;-74
2021/01/21 04:06:25;;;;;;;0.85;0.85;;;15.20;52.50;;;;;;2091624;28;20110;-72
2021/01/21 04:07:45;;;;;;;1.60;0.80;;;15.20;52.60;;;;;;2096671;28;20033;-73
2021/01/21 04:09:06;;;;;;;0.93;0.93;;;15.20;52.60;;;;;;2088550;28;20039;-72
2021/01/21 04:10:27;;;;;;;1.40;1.02;;;15.20;52.70;;;;;;2096900;28;20143;-71
2021/01/21 04:11:48;;;;;;;1.40;0.80;;;15.20;52.70;;;;;;2096496;28;20036;-74
2021/01/21 04:13:09;;;;;;;1.45;0.95;;;15.20;52.80;;;;;;2096618;28;20029;-71
2021/01/21 04:14:30;;;;;;;0.93;0.75;;;15.20;52.80;;;;;;2096737;28;20115;-72
2021/01/21 04:15:51;;;;;;;0.80;0.60;;;15.20;52.90;;;;;;2096934;28;20528;-71
2021/01/21 04:17:12;;;;;;;0.60;0.60;;;15.20;53.00;;;;;;2089552;28;20107;-75
2021/01/21 04:18:33;;;;;;;1.67;0.95;;;15.20;53.00;;;;;;2094687;28;20049;-73
2021/01/21 04:19:54;;;;;;;1.05;0.82;;;15.20;53.00;;;;;;2095351;28;20025;-70
2021/01/21 04:21:15;;;;;;;1.02;0.73;;;15.20;53.10;;;;;;2089810;28;20109;-70
2021/01/21 04:22:35;;;;;;;0.70;0.63;;;15.20;53.20;;;;;;2097045;28;20064;-73
2021/01/21 04:23:59;;;;;;;3.17;0.90;;;15.20;53.20;;;;;;2096634;28;20043;-73
2021/01/21 04:25:20;;;;;;;1.15;0.85;;;15.20;53.30;;;;;;2090420;28;20127;-71
2021/01/21 04:26:41;;;;;;;0.85;0.85;;;15.20;53.40;;;;;;2096539;28;20036;-59
2021/01/21 04:28:03;;;;;;;0.80;0.80;;;15.20;53.50;;;;;;2096236;28;20036;-60
2021/01/21 04:29:24;;;;;;;1.25;0.93;;;15.20;53.50;;;;;;2095142;28;20039;-60
2021/01/21 04:30:44;;;;;;;1.05;0.70;;;15.20;53.50;;;;;;2096274;28;20035;-59
2021/01/21 04:32:05;;;;;;;1.23;1.00;;;15.20;53.60;;;;;;2099872;28;20442;-60
2021/01/21 04:33:26;;;;;;;0.77;0.77;;;15.10;53.70;;;;;;2090610;28;20028;-60
2021/01/21 04:34:47;;;;;;;2.05;0.98;;;15.10;53.80;;;;;;2094543;28;20013;-61
2021/01/21 04:36:08;;;;;;;1.95;0.90;;;15.10;53.90;;;;;;2097523;28;20024;-59
2021/01/21 04:37:29;;;;;;;0.65;0.63;;;15.10;53.90;;;;;;2097009;28;20059;-59
2021/01/21 04:38:50;;;;;;;0.70;0.70;;;15.10;54.00;;;;;;2093740;28;20064;-59
2021/01/21 04:40:11;;;;;;;0.80;0.80;;;15.10;54.20;;;;;;2096206;28;20036;-59
2021/01/21 04:41:32;;;;;;;0.60;0.60;;;15.10;54.20;;;;;;2095291;28;20024;-60
2021/01/21 04:42:53;;;;;;;0.70;0.70;;;15.10;54.20;;;;;;2096106;28;20035;-60
2021/01/21 04:44:14;;;;;;;0.75;0.75;;;15.10;54.30;;;;;;2091893;28;20017;-60
2021/01/21 04:45:36;;;;;;;0.98;0.70;;;15.10;54.40;;;;;;2096500;28;20641;-61
2021/01/21 04:46:59;;;;;;;1.60;1.00;;;15.10;54.50;;;;;;2097258;28;20044;-60
2021/01/21 04:48:20;;;;;;;0.95;0.90;;;15.10;54.60;;;;;;2090844;28;20033;-60
2021/01/21 04:49:42;;;;;;;1.02;1.02;;;15.10;54.80;;;;;;2096107;28;20127;-60
2021/01/21 04:51:03;;;;;;;1.00;0.80;;;15.10;55.10;;;;;;2096047;28;20422;-60
2021/01/21 04:52:25;;;;;;;1.05;0.90;;;15.10;55.30;;;;;;2094677;28;20134;-59
2021/01/21 04:53:56;;;;;;;1.77;1.00;;;15.10;56.50;;;;;;2094904;28;20163;-59
2021/01/21 04:55:21;;;;;;;0.80;0.77;;;15.00;56.70;;;;;;2091462;28;20021;-60
2021/01/21 04:56:47;;;;;;;1.65;1.00;;;15.00;56.50;;;;;;2095396;28;20016;-60
2021/01/21 04:58:34;;;;;;;1.70;0.90;;;15.00;56.70;;;;;;2096731;28;20032;-59
2021/01/21 04:59:55;;;;;;;1.00;0.80;;;14.90;57.20;;;;;;2096028;28;20040;-60
2021/01/21 05:01:18;;;;;;;2.03;0.90;;;14.90;57.10;;;;;;2097844;28;20039;-60
2021/01/21 05:02:40;;;;;;;2.92;1.20;;;14.80;57.70;;;;;;2095909;28;20116;-62
2021/01/21 05:04:02;;;;;;;2.20;0.93;;;14.70;58.60;;;;;;2095877;28;20025;-61
2021/01/21 05:05:23;;;;;;;1.00;0.82;;;14.60;59.30;;;;;;2092611;28;20028;-61
2021/01/21 05:06:45;;;;;;;1.20;0.80;;;14.50;59.70;;;;;;2097996;28;20158;-60
2021/01/21 05:08:06;;;;;;;2.72;1.08;;;14.40;59.40;;;;;;2097263;28;20047;-61
2021/01/21 05:09:29;;;;;;;1.05;0.70;;;14.30;59.70;;;;;;2091587;28;20044;-61
2021/01/21 05:10:50;;;;;;;1.00;0.52;;;14.10;59.60;;;;;;2096849;28;20086;-61
2021/01/21 05:12:11;;;;;;;0.70;0.70;;;14.00;60.00;;;;;;2096844;28;20016;-61
2021/01/21 05:13:32;;;;;;;0.52;0.52;;;13.80;59.50;;;;;;2096282;28;20021;-61
2021/01/21 05:14:53;;;;;;;0.60;0.60;;;13.60;59.60;;;;;;2095885;28;20359;-61
2021/01/21 05:16:14;;;;;;;0.70;0.70;;;13.50;59.80;;;;;;2091016;28;20037;-61
2021/01/21 05:17:35;;;;;;;1.10;0.70;;;13.30;60.10;;;;;;2097056;28;20104;-61
2021/01/21 05:19:00;;;;;;;1.27;0.90;;;13.10;60.10;;;;;;2097035;28;20095;-61
2021/01/21 05:20:25;;;;;;;0.70;0.70;;;12.90;60.50;;;;;;2095001;28;20081;-60
2021/01/21 05:21:46;;;;;;;0.60;0.60;;;12.70;60.80;;;;;;2096599;28;20032;-60
2021/01/21 05:23:07;;;;;;;0.50;0.50;;;12.60;60.50;;;;;;2083304;28;20026;-61
2021/01/21 05:24:28;;;;;;;1.65;0.82;;;12.40;60.70;;;;;;2092836;28;20033;-61
2021/01/21 05:25:49;;;;;;;0.70;0.70;;;12.30;61.00;;;;;;2097795;28;20367;-61
2021/01/21 05:27:10;;;;;;;1.25;0.80;;;12.10;61.60;;;;;;2098963;28;20067;-61
2021/01/21 05:28:32;;;;;;;1.25;0.70;;;12.00;61.70;;;;;;2097304;28;20064;-60
2021/01/21 05:29:53;;;;;;;0.60;0.60;;;11.90;62.00;;;;;;2096956;28;20079;-60
2021/01/21 05:31:15;;;;;;;3.28;0.90;;;11.80;62.50;;;;;;2092284;28;20063;-60
2021/01/21 05:32:37;;;;;;;0.70;0.70;;;11.60;62.70;;;;;;2097777;28;20435;-60
2021/01/21 05:33:58;;;;;;;0.68;0.60;;;11.50;63.30;;;;;;2098330;28;20367;-60
2021/01/21 05:35:19;;;;;;;0.70;0.70;;;11.40;63.50;;;;;;2096731;28;20047;-60
2021/01/21 05:36:43;;;;;;;1.70;0.70;;;11.30;63.50;;;;;;2094136;28;20111;-61
2021/01/21 05:38:04;;;;;;;2.70;0.80;;;11.20;63.70;;;;;;2090576;28;20111;-61
2021/01/21 05:39:38;;;;;;;3.60;0.80;;;11.20;63.70;;;;;;2098783;28;20036;-60
2021/01/21 05:40:59;;;;;;;1.83;0.80;;;11.10;64.20;;;;;;2097395;28;20422;-60
2021/01/21 05:42:23;;;;;;;1.27;0.77;;;11.00;64.10;;;;;;2098023;28;20036;-60
2021/01/21 05:43:47;;;;;;;0.82;0.80;;;10.90;64.40;;;;;;2097447;28;20037;-60
2021/01/21 05:45:08;;;;;;;2.15;1.10;;;10.80;64.50;;;;;;2091570;28;20025;-60
2021/01/21 05:46:31;;;;;;;1.08;0.90;;;10.70;64.80;;;;;;2098278;28;20016;-60
2021/01/21 05:47:53;;;;;;;0.80;0.80;;;10.70;64.90;;;;;;2097942;28;20032;-60
2021/01/21 05:49:14;;;;;;;0.98;0.70;;;10.60;65.20;;;;;;2090898;28;20079;-61
2021/01/21 05:50:35;;;;;;;0.73;0.70;;;10.50;65.40;;;;;;2097320;28;20036;-60
2021/01/21 05:51:57;;;;;;;1.25;1.00;;;10.50;65.90;;;;;;2097455;28;20123;-60
2021/01/21 05:53:18;;;;;;;0.77;0.77;;;10.40;66.00;;;;;;2088949;28;20067;-59
2021/01/21 05:54:40;;;;;;;1.85;0.98;;;10.40;66.20;;;;;;2095430;28;20012;-60
2021/01/21 05:56:02;;;;;;;1.13;0.98;;;10.30;66.20;;;;;;2096563;28;20033;-59
2021/01/21 05:57:23;;;;;;;1.88;0.80;;;10.30;66.50;;;;;;2094247;28;20037;-59
2021/01/21 05:58:44;;;;;;;0.90;0.70;;;10.20;66.60;;;;;;2097164;28;20116;-61
2021/01/21 06:00:06;;;;;;;1.67;0.80;;;10.20;66.80;;;;;;2096467;28;20036;-61
2021/01/21 06:01:27;;;;;;;0.80;0.80;;;10.10;67.00;;;;;;2097199;28;20025;-61
2021/01/21 06:02:52;;;;;;;0.90;0.90;;;10.10;66.90;;;;;;2098248;28;20059;-61
2021/01/21 06:04:13;;;;;;;2.85;1.00;;;10.10;67.20;;;;;;2097189;28;20021;-61
2021/01/21 06:05:35;;;;;;;2.67;1.08;;;10.00;67.40;;;;;;2098924;28;20020;-61
2021/01/21 06:06:56;;;;;;;1.42;1.00;;;10.00;67.40;;;;;;2096775;28;20044;-61
2021/01/21 06:08:21;;;;;;;1.83;1.00;;;10.00;67.40;;;;;;2097810;28;20036;-61
2021/01/21 06:09:43;;;;;;;1.77;0.93;;;9.90;67.40;;;;;;2097581;28;20028;-61
2021/01/21 06:11:05;;;;;;;2.30;0.90;;;9.90;67.30;;;;;;2096305;28;20051;-61
2021/01/21 06:12:28;;;;;;;1.95;0.98;;;9.90;67.50;;;;;;2097309;28;20025;-61
2021/01/21 06:13:49;;;;;;;0.70;0.65;;;9.80;67.60;;;;;;2097937;28;20032;-61
2021/01/21 06:15:13;;;;;;;1.08;0.90;;;9.80;67.60;;;;;;2090565;28;20029;-61
2021/01/21 06:16:36;;;;;;;2.55;1.13;;;9.80;68.10;;;;;;2100331;28;20032;-61
2021/01/21 06:17:57;;;;;;;1.17;1.08;;;9.80;68.10;;;;;;2089177;28;20021;-61
2021/01/21 06:19:19;;;;;;;2.55;1.20;;;9.80;68.10;;;;;;2087602;28;20140;-61
2021/01/21 06:20:40;;;;;;;1.45;1.20;;;9.80;68.30;;;;;;2093769;28;20028;-62
2021/01/21 06:22:07;;;;;;;2.20;1.50;;;9.70;68.30;;;;;;2090066;28;20056;-61
2021/01/21 06:23:31;;;;;;;3.13;1.35;;;9.70;68.30;;;;;;2092916;28;20032;-62
2021/01/21 06:24:58;;;;;;;2.40;1.35;;;9.70;69.10;;;;;;2095190;28;20028;-61
2021/01/21 06:26:22;;;;;;;1.27;1.17;;;9.70;69.10;;;;;;2091707;28;20041;-61
2021/01/21 06:27:45;;;;;;;2.30;1.20;;;9.60;69.00;;;;;;2096110;28;20029;-61
2021/01/21 06:29:09;;;;;;;3.20;1.25;;;9.60;68.40;;;;;;2097457;28;20032;-61
2021/01/21 06:30:32;;;;;;;1.85;1.10;;;9.60;68.60;;;;;;2097783;28;20063;-61
2021/01/21 06:31:57;;;;;;;2.40;1.17;;;9.60;68.70;;;;;;2097322;28;20333;-61
2021/01/21 06:33:29;;;;;;;1.52;1.20;;;9.60;68.80;;;;;;2097157;28;20102;-61
2021/01/21 06:34:52;;;;;;;2.75;1.52;;;9.50;68.70;;;;;;2094702;28;20058;-61
2021/01/21 06:36:19;;;;;;;2.47;1.20;;;9.50;68.90;;;;;;2094055;28;20025;-61
2021/01/21 06:37:42;;;;;;;3.25;1.30;;;9.50;69.20;;;;;;2096715;28;20032;-60
2021/01/21 06:39:04;;;;;;;1.95;1.25;;;9.50;68.90;;;;;;2096552;28;20112;-61
2021/01/21 06:40:25;;;;;;;4.10;1.65;;;9.50;68.80;;;;;;2092395;28;20047;-61
2021/01/21 06:41:49;;;;;;;4.43;1.17;;;9.50;68.80;;;;;;2097270;28;20020;-60
2021/01/21 06:43:13;;;;;;;2.70;1.00;;;9.40;68.60;;;;;;2101730;28;20024;-61
2021/01/21 06:44:34;;;;;;;2.15;1.20;;;9.40;69.10;;;;;;2095242;28;20132;-62
2021/01/21 06:45:58;;;;;;;3.78;1.33;;;9.40;69.00;;;;;;2097050;28;20074;-61
2021/01/21 06:47:20;;;;;;;1.83;1.00;;;9.40;69.50;;;;;;2091400;28;20037;-60
2021/01/21 06:48:48;;;;;;;4.03;1.30;;;9.40;69.30;;;;;;2096670;28;20039;-60
2021/01/21 06:50:10;;;;;;;3.72;1.33;;;9.40;69.90;;;;;;2096964;28;20466;-60
2021/01/21 06:51:31;;;;;;;2.92;1.13;;;9.40;69.50;;;;;;2097667;28;20039;-61
2021/01/21 06:52:52;;;;;;;2.60;1.50;;;9.40;69.60;;;;;;2094659;28;20017;-61
2021/01/21 06:54:14;;;;;;;3.60;1.50;;;9.40;69.50;;;;;;2095340;28;20773;-61
2021/01/21 06:55:36;;;;;;;4.68;1.40;;;9.40;69.90;;;;;;2097783;28;20032;-61
2021/01/21 06:56:57;;;;;;;6.50;1.60;;;9.40;69.60;;;;;;2096252;28;20444;-61
2021/01/21 06:58:48;;;;;;;3.92;1.40;;;9.40;69.70;;;;;;2091925;28;20086;-61
2021/01/21 07:00:17;;;;;;;2.00;1.20;;;9.40;70.30;;;;;;2090076;28;20119;-61
2021/01/21 07:01:40;;;;;;;3.65;1.40;;;9.40;70.00;;;;;;2095533;28;20032;-61
2021/01/21 07:03:02;;;;;;;3.97;1.20;;;9.40;69.80;;;;;;2089579;28;20427;-60
2021/01/21 07:04:25;;;;;;;4.07;1.30;;;9.40;69.80;;;;;;2093415;28;20137;-62
2021/01/21 07:05:59;;;;;;;3.50;1.73;;;9.40;69.80;;;;;;2097331;28;20033;-61
2021/01/21 07:07:20;;;;;;;4.18;1.17;;;9.40;69.70;;;;;;2097598;28;20046;-61
2021/01/21 07:09:07;;;;;;;4.90;1.30;;;9.40;69.50;;;;;;2093774;28;20040;-61
2021/01/21 07:10:42;;;;;;;5.00;1.30;;;9.40;71.00;;;;;;2092522;28;20486;-61
2021/01/21 07:12:04;;;;;;;4.57;1.25;;;9.40;70.00;;;;;;2097720;28;20079;-60
2021/01/21 07:13:29;;;;;;;5.40;1.38;;;9.40;69.70;;;;;;2099140;28;20024;-61